createdAt,value
2018-09-23T00:00:12.848Z,91.61
2018-09-23T00:05:08.148Z,90.95
2018-09-23T00:10:05.203Z,92.21
2018-09-23T00:15:00.556Z,92.58
2018-09-23T00:19:55.819Z,93.95
2018-09-23T00:24:50.984Z,94.19
2018-09-23T00:29:52.235Z,93.33
2018-09-23T00:34:48.702Z,94.08
2018-09-23T00:39:43.890Z,95.60
2018-09-23T00:44:39.133Z,95.93
2018-09-23T00:49:34.328Z,94.14
2018-09-23T00:54:29.533Z,96.22
2018-09-23T00:59:24.690Z,94.48
2018-09-23T01:04:19.814Z,95.90
2018-09-23T01:09:15.048Z,95.33
2018-09-23T01:14:10.172Z,94.79
2018-09-23T01:19:05.340Z,93.55
2018-09-23T01:24:00.422Z,93.82
2018-09-23T01:28:55.609Z,93.23
2018-09-23T01:33:50.916Z,93.87
2018-09-23T01:38:46.125Z,94.27
2018-09-23T01:43:41.290Z,94.11
2018-09-23T01:48:36.468Z,94.19
2018-09-23T01:53:31.625Z,94.99
2018-09-23T01:58:26.742Z,95.37
2018-09-23T02:03:21.877Z,95.26
2018-09-23T02:08:17.133Z,96.67
2018-09-23T02:13:12.308Z,95.41
2018-09-23T02:18:07.469Z,94.97
2018-09-23T02:23:02.672Z,94.93
2018-09-23T02:27:57.854Z,97.27
2018-09-23T02:32:53.087Z,96.46
2018-09-23T02:37:48.183Z,95.82
2018-09-23T02:42:43.360Z,96.52
2018-09-23T02:47:38.525Z,94.81
2018-09-23T02:52:33.682Z,94.72
2018-09-23T02:57:28.813Z,95.90
2018-09-23T03:02:24.030Z,95.31
2018-09-23T03:07:19.233Z,95.90
2018-09-23T03:12:14.370Z,95.81
2018-09-23T03:17:09.549Z,96.87
2018-09-23T03:22:04.758Z,95.94
2018-09-23T03:26:59.950Z,95.86
2018-09-23T03:31:55.114Z,97.19
2018-09-23T03:36:50.244Z,97.74
2018-09-23T03:41:45.948Z,97.24
2018-09-23T03:46:41.110Z,96.89
2018-09-23T03:51:36.366Z,97.86
2018-09-23T03:56:31.671Z,98.21
2018-09-23T04:01:26.861Z,98.59
2018-09-23T04:06:22.122Z,97.71
2018-09-23T04:11:17.346Z,97.56
2018-09-23T04:16:12.479Z,98.14
2018-09-23T04:21:07.686Z,97.79
2018-09-23T04:26:02.977Z,98.11
2018-09-23T04:30:58.222Z,98.02
2018-09-23T04:35:53.403Z,97.70
2018-09-23T04:40:48.668Z,98.12
2018-09-23T04:45:44.334Z,98.94
2018-09-23T04:50:39.452Z,99.34
2018-09-23T04:55:34.571Z,99.92
2018-09-23T05:00:29.770Z,99.25
2018-09-23T05:05:24.894Z,99.31
2018-09-23T05:10:20.022Z,99.83
2018-09-23T05:15:15.133Z,100.00
2018-09-23T05:20:10.179Z,99.78
2018-09-23T05:25:05.306Z,99.82
2018-09-23T05:30:00.366Z,99.36
2018-09-23T05:34:55.384Z,99.79
2018-09-23T05:39:50.558Z,99.70
2018-09-23T05:44:45.682Z,98.84
2018-09-23T05:49:40.829Z,99.11
2018-09-23T05:54:35.830Z,99.13
2018-09-23T05:59:30.884Z,99.16
2018-09-23T06:04:25.961Z,98.87
2018-09-23T06:09:21.110Z,98.27
2018-09-23T06:14:16.095Z,98.28
2018-09-23T06:19:11.209Z,98.48
2018-09-23T06:24:06.302Z,98.80
2018-09-23T06:29:01.536Z,98.83
2018-09-23T06:33:56.740Z,98.73
2018-09-23T06:38:52.060Z,96.89
2018-09-23T06:43:47.124Z,97.75
2018-09-23T06:48:42.296Z,96.17
2018-09-23T06:53:37.483Z,95.89
2018-09-23T06:58:32.548Z,96.84
2018-09-23T07:03:27.591Z,96.37
2018-09-23T07:08:22.649Z,95.18
2018-09-23T07:13:17.727Z,94.08
2018-09-23T07:18:12.838Z,94.70
2018-09-23T07:23:07.903Z,94.92
2018-09-23T07:28:03.098Z,96.02
2018-09-23T07:32:58.208Z,94.40
2018-09-23T07:37:53.557Z,96.51
2018-09-23T07:42:48.670Z,95.13
2018-09-23T07:47:43.690Z,95.62
2018-09-23T07:52:38.839Z,91.74
2018-09-23T07:57:33.880Z,93.10
2018-09-23T08:02:28.946Z,92.02
2018-09-23T08:07:24.070Z,91.34
2018-09-23T08:12:19.220Z,86.92
2018-09-23T08:17:14.416Z,89.71
2018-09-23T08:22:09.930Z,87.52
2018-09-23T08:27:05.047Z,87.57
2018-09-23T08:32:00.147Z,81.29
2018-09-23T08:36:55.190Z,84.49
2018-09-23T08:41:50.375Z,82.37
2018-09-23T08:46:46.375Z,79.38
2018-09-23T08:51:41.693Z,78.80
2018-09-23T08:56:37.676Z,78.69
2018-09-23T09:01:32.798Z,80.14
2018-09-23T09:06:27.849Z,77.41
2018-09-23T09:11:22.851Z,77.40
2018-09-23T09:16:17.858Z,75.33
2018-09-23T09:21:12.818Z,74.31
2018-09-23T09:26:07.797Z,75.35
2018-09-23T09:31:02.829Z,73.11
2018-09-23T09:35:57.751Z,73.20
2018-09-23T09:40:52.684Z,76.66
2018-09-23T09:45:49.107Z,74.47
2018-09-23T09:50:44.147Z,72.35
2018-09-23T09:55:39.418Z,68.04
2018-09-23T10:00:36.100Z,64.73
2018-09-23T10:05:31.099Z,63.68
2018-09-23T10:10:26.145Z,63.72
2018-09-23T10:15:21.266Z,61.97
2018-09-23T10:20:16.245Z,64.14
2018-09-23T10:25:11.288Z,64.01
2018-09-23T10:30:07.584Z,65.71
2018-09-23T10:35:02.440Z,65.03
2018-09-23T10:39:57.265Z,64.84
2018-09-23T10:44:52.119Z,67.43
2018-09-23T10:49:46.971Z,64.06
2018-09-23T10:54:41.825Z,67.50
2018-09-23T10:59:37.675Z,66.35
2018-09-23T11:04:32.570Z,66.04
2018-09-23T11:09:27.542Z,64.77
2018-09-23T11:14:22.481Z,64.21
2018-09-23T11:19:17.383Z,66.69
2018-09-23T11:24:12.411Z,64.45
2018-09-23T11:29:07.356Z,62.91
2018-09-23T11:34:02.285Z,64.62
2018-09-23T11:38:57.243Z,62.66
2018-09-23T11:43:52.185Z,62.62
2018-09-23T11:48:47.945Z,60.79
2018-09-23T11:53:42.880Z,57.26
2018-09-23T11:58:37.877Z,57.66
2018-09-23T12:03:32.884Z,55.68
2018-09-23T12:08:28.506Z,56.69
2018-09-23T12:13:24.730Z,57.18
2018-09-23T12:18:20.569Z,57.60
2018-09-23T12:23:15.723Z,58.22
2018-09-23T12:28:10.706Z,56.46
2018-09-23T12:33:05.683Z,56.56
2018-09-23T12:38:00.638Z,56.99
2018-09-23T12:42:55.523Z,58.61
2018-09-23T12:47:50.778Z,57.25
2018-09-23T12:52:45.626Z,57.97
2018-09-23T12:57:42.496Z,57.89
2018-09-23T13:02:39.125Z,56.52
2018-09-23T13:07:33.907Z,57.25
2018-09-23T13:12:28.760Z,56.67
2018-09-23T13:17:23.534Z,55.06
2018-09-23T13:22:18.448Z,54.65
2018-09-23T13:27:13.256Z,55.15
2018-09-23T13:32:08.245Z,54.64
2018-09-23T13:37:03.100Z,55.89
2018-09-23T13:41:58.123Z,54.69
2018-09-23T13:46:53.062Z,54.05
2018-09-23T13:51:48.147Z,53.43
2018-09-23T13:56:43.118Z,54.47
2018-09-23T14:01:38.041Z,52.21
2018-09-23T14:06:32.998Z,52.36
2018-09-23T14:11:27.836Z,53.23
2018-09-23T14:16:22.593Z,53.99
2018-09-23T14:21:17.462Z,53.71
2018-09-23T14:26:12.567Z,53.55
2018-09-23T14:31:07.565Z,53.09
2018-09-23T14:36:02.490Z,53.55
2018-09-23T14:41:00.221Z,52.25
2018-09-23T14:45:55.186Z,53.08
2018-09-23T14:50:49.734Z,55.98
2018-09-23T14:55:44.789Z,59.48
2018-09-23T15:00:39.619Z,61.58
2018-09-23T15:05:34.504Z,62.88
2018-09-23T15:10:29.474Z,63.03
2018-09-23T15:15:24.272Z,62.48
2018-09-23T15:20:18.966Z,61.20
2018-09-23T15:25:13.732Z,58.29
2018-09-23T15:30:08.429Z,58.22
2018-09-23T15:35:03.434Z,60.35
2018-09-23T15:39:58.129Z,61.97
2018-09-23T15:44:52.841Z,63.35
2018-09-23T15:49:47.589Z,62.06
2018-09-23T15:54:42.261Z,64.13
2018-09-23T15:59:36.848Z,64.20
2018-09-23T16:04:31.483Z,64.04
2018-09-23T16:09:26.072Z,64.13
2018-09-23T16:14:20.646Z,63.26
2018-09-23T16:19:15.611Z,63.66
2018-09-23T16:24:10.549Z,63.52
2018-09-23T16:29:05.467Z,63.45
2018-09-23T16:34:00.545Z,63.88
2018-09-23T16:43:59.414Z,62.92
2018-09-23T16:48:54.493Z,64.04
2018-09-23T16:53:49.450Z,62.93
2018-09-23T16:58:44.344Z,63.89
2018-09-23T17:03:39.472Z,63.43
2018-09-23T17:08:34.441Z,63.46
2018-09-23T17:13:29.470Z,63.91
2018-09-23T17:18:24.458Z,64.89
2018-09-23T17:23:19.338Z,64.33
2018-09-23T17:28:14.242Z,63.97
2018-09-23T17:33:09.170Z,65.45
2018-09-23T17:38:04.254Z,64.18
2018-09-23T17:42:59.124Z,63.94
2018-09-23T17:47:54.134Z,63.98
2018-09-23T17:52:49.525Z,62.03
2018-09-23T17:57:44.930Z,59.88
2018-09-23T18:02:39.889Z,60.75
2018-09-23T18:07:34.813Z,60.25
2018-09-23T18:12:29.780Z,59.18
2018-09-23T18:17:24.773Z,57.89
2018-09-23T18:22:19.781Z,59.27
2018-09-23T18:27:14.688Z,57.59
2018-09-23T18:32:09.601Z,57.23
2018-09-23T18:37:04.966Z,57.80
2018-09-23T18:42:00.301Z,58.02
2018-09-23T18:46:56.198Z,58.90
2018-09-23T18:51:52.451Z,61.58
2018-09-23T18:56:48.721Z,62.79
2018-09-23T19:01:45.187Z,61.50
2018-09-23T19:06:41.714Z,60.02
2018-09-23T19:11:39.071Z,82.93
2018-09-23T19:16:36.243Z,92.72
2018-09-23T19:21:33.053Z,100.00
2018-09-23T19:26:30.913Z,100.00
2018-09-23T19:31:27.264Z,99.15
2018-09-23T19:36:23.724Z,99.44
2018-09-23T19:41:19.961Z,100.00
2018-09-23T19:46:15.958Z,100.00
2018-09-23T19:51:11.424Z,100.00
2018-09-23T19:56:06.353Z,98.90
2018-09-23T20:01:01.317Z,97.13
2018-09-23T20:05:56.363Z,92.29
2018-09-23T20:10:51.406Z,94.43
2018-09-23T20:15:46.517Z,94.08
2018-09-23T20:20:41.442Z,92.38
2018-09-23T20:25:36.465Z,92.95
2018-09-23T20:30:31.419Z,95.02
2018-09-23T20:35:27.185Z,93.94
2018-09-23T20:40:22.209Z,96.98
2018-09-23T20:45:17.102Z,94.86
2018-09-23T20:50:12.053Z,96.99
2018-09-23T20:55:06.941Z,98.21
2018-09-23T21:00:01.955Z,91.85
2018-09-23T21:04:56.802Z,94.40
2018-09-23T21:09:51.609Z,95.10
2018-09-23T21:14:46.440Z,93.66
2018-09-23T21:19:41.270Z,92.45
2018-09-23T21:24:36.108Z,92.80
2018-09-23T21:29:30.969Z,91.77
2018-09-23T21:34:26.002Z,93.57
2018-09-23T21:39:20.789Z,90.76
2018-09-23T21:44:15.578Z,91.80
2018-09-23T21:49:10.554Z,91.52
2018-09-23T21:54:05.372Z,90.24
2018-09-23T21:59:00.196Z,90.55
2018-09-23T22:03:54.956Z,88.34
2018-09-23T22:08:49.805Z,87.45
2018-09-23T22:13:44.677Z,86.87
2018-09-23T22:18:39.556Z,90.67
2018-09-23T22:23:34.373Z,85.98
2018-09-23T22:28:29.504Z,87.12
2018-09-23T22:33:24.580Z,88.35
2018-09-23T22:38:19.658Z,87.01
2018-09-23T22:43:14.521Z,91.13
2018-09-23T22:48:09.418Z,90.53
2018-09-23T22:53:04.320Z,89.49
2018-09-23T22:57:59.190Z,83.80
2018-09-23T23:02:54.098Z,83.02
2018-09-23T23:07:48.970Z,83.45
2018-09-23T23:12:43.892Z,83.53
2018-09-23T23:17:38.838Z,81.52
2018-09-23T23:22:33.725Z,79.72
2018-09-23T23:27:28.602Z,84.22
2018-09-23T23:32:23.475Z,83.34
2018-09-23T23:37:18.326Z,80.54
2018-09-23T23:42:13.215Z,83.66
2018-09-23T23:47:08.330Z,81.98
2018-09-23T23:52:03.252Z,80.63
2018-09-23T23:56:58.139Z,79.76
